createdAt,value
2023-04-28T00:00:39.472Z,68.01
2023-04-28T00:02:01.504Z,68.25
2023-04-28T00:03:25.815Z,68.42
2023-04-28T00:05:01.925Z,68.39
2023-04-28T00:06:26.236Z,68.45
2023-04-28T00:07:49.046Z,68.76
2023-04-28T00:09:15.420Z,68.72
2023-04-28T00:10:37.892Z,68.57
2023-04-28T00:12:11.368Z,68.47
2023-04-28T00:13:37.940Z,68.66
2023-04-28T00:15:09.130Z,68.64
2023-04-28T00:16:43.225Z,68.42
2023-04-28T00:18:16.898Z,68.48
2023-04-28T00:19:38.992Z,68.40
2023-04-28T00:21:01.728Z,68.43
2023-04-28T00:22:30.806Z,68.68
2023-04-28T00:24:03.931Z,68.54
2023-04-28T00:25:27.851Z,68.39
2023-04-28T00:26:52.452Z,68.46
2023-04-28T00:28:18.400Z,68.46
2023-04-28T00:29:51.053Z,68.61
2023-04-28T00:31:13.025Z,68.40
2023-04-28T00:32:42.612Z,68.13
2023-04-28T00:34:15.747Z,68.24
2023-04-28T00:35:45.830Z,68.21
2023-04-28T00:37:12.164Z,68.08
2023-04-28T00:38:34.467Z,68.06
2023-04-28T00:39:58.097Z,68.10
2023-04-28T00:41:24.390Z,68.25
2023-04-28T00:42:46.240Z,68.41
2023-04-28T00:44:07.977Z,68.03
2023-04-28T00:45:32.710Z,68.29
2023-04-28T00:47:05.995Z,68.23
2023-04-28T00:48:29.784Z,68.00
2023-04-28T00:50:05.664Z,68.00
2023-04-28T00:51:41.698Z,68.33
2023-04-28T00:53:14.726Z,67.91
2023-04-28T00:54:44.468Z,67.75
2023-04-28T00:56:06.613Z,67.95
2023-04-28T00:57:28.607Z,67.78
2023-04-28T00:58:52.445Z,67.59
2023-04-28T01:00:25.802Z,67.49
2023-04-28T01:01:47.565Z,67.20
2023-04-28T01:03:20.841Z,67.72
2023-04-28T01:04:42.891Z,67.79
2023-04-28T01:06:04.731Z,67.12
2023-04-28T01:07:38.560Z,66.85
2023-04-28T01:09:08.349Z,66.68
2023-04-28T01:10:43.434Z,66.71
2023-04-28T01:12:07.516Z,66.83
2023-04-28T01:13:47.921Z,66.75
2023-04-28T01:15:13.947Z,66.68
2023-04-28T01:16:38.842Z,66.46
2023-04-28T01:18:00.601Z,66.53
2023-04-28T01:19:23.432Z,66.57
2023-04-28T01:20:46.312Z,66.42
2023-04-28T01:22:19.823Z,66.55
2023-04-28T01:23:53.427Z,66.54
2023-04-28T01:25:23.012Z,66.40
2023-04-28T01:26:52.117Z,66.26
2023-04-28T01:28:25.784Z,66.39
2023-04-28T01:29:58.971Z,66.55
2023-04-28T01:31:32.624Z,66.53
2023-04-28T01:33:04.360Z,66.59
2023-04-28T01:34:28.255Z,66.61
2023-04-28T01:36:11.456Z,66.78
2023-04-28T01:37:35.629Z,66.79
2023-04-28T01:39:08.822Z,66.81
2023-04-28T01:40:50.295Z,66.75
2023-04-28T01:42:24.070Z,66.92
2023-04-28T01:43:56.595Z,67.13
2023-04-28T01:45:22.741Z,66.71
2023-04-28T01:47:07.762Z,67.06
2023-04-28T01:48:44.264Z,67.54
2023-04-28T01:50:07.363Z,67.48
2023-04-28T01:51:43.281Z,67.36
2023-04-28T01:53:20.589Z,67.51
2023-04-28T01:54:47.670Z,67.72
2023-04-28T01:56:11.462Z,67.86
2023-04-28T01:57:35.836Z,68.13
2023-04-28T01:58:59.671Z,68.10
2023-04-28T02:00:33.682Z,67.99
2023-04-28T02:01:57.940Z,68.05
2023-04-28T02:03:28.784Z,68.28
2023-04-28T02:04:58.178Z,68.41
2023-04-28T02:06:19.852Z,68.38
2023-04-28T02:07:44.007Z,68.58
2023-04-28T02:09:17.513Z,68.79
2023-04-28T02:10:56.629Z,68.68
2023-04-28T02:12:18.632Z,68.80
2023-04-28T02:13:42.676Z,68.68
2023-04-28T02:15:17.914Z,68.85
2023-04-28T02:16:40.198Z,68.91
2023-04-28T02:18:13.221Z,69.05
2023-04-28T02:19:38.645Z,69.12
2023-04-28T02:21:00.548Z,69.32
2023-04-28T02:22:41.674Z,69.24
2023-04-28T02:24:11.383Z,69.24
2023-04-28T02:25:36.050Z,69.46
2023-04-28T02:26:58.983Z,69.68
2023-04-28T02:28:32.367Z,69.65
2023-04-28T02:30:05.506Z,69.62
2023-04-28T02:31:34.660Z,69.66
2023-04-28T02:32:56.420Z,69.64
2023-04-28T02:34:33.493Z,69.52
2023-04-28T02:36:07.942Z,69.23
2023-04-28T02:37:35.101Z,69.34
2023-04-28T02:38:59.414Z,69.16
2023-04-28T02:40:22.222Z,69.12
2023-04-28T02:41:53.732Z,69.10
2023-04-28T02:43:27.254Z,69.10
2023-04-28T02:44:56.317Z,68.93
2023-04-28T02:46:41.373Z,68.71
2023-04-28T02:48:19.565Z,68.91
2023-04-28T02:49:41.822Z,68.98
2023-04-28T02:51:10.793Z,68.90
2023-04-28T02:52:35.607Z,68.69
2023-04-28T02:53:57.182Z,68.82
2023-04-28T02:55:26.386Z,68.55
2023-04-28T02:57:06.676Z,68.40
2023-04-28T02:58:31.033Z,68.54
2023-04-28T02:59:53.102Z,68.36
2023-04-28T03:01:17.389Z,68.44
2023-04-28T03:02:39.467Z,68.52
2023-04-28T03:04:03.417Z,68.58
2023-04-28T03:05:40.462Z,68.55
2023-04-28T03:07:04.542Z,68.88
2023-04-28T03:08:36.429Z,68.74
2023-04-28T03:10:00.945Z,68.91
2023-04-28T03:11:25.662Z,68.69
2023-04-28T03:12:49.511Z,68.57
2023-04-28T03:14:13.782Z,68.59
2023-04-28T03:15:54.682Z,68.67
2023-04-28T03:17:16.224Z,68.57
2023-04-28T03:18:38.837Z,68.53
2023-04-28T03:20:00.301Z,68.27
2023-04-28T03:21:26.378Z,68.46
2023-04-28T03:22:50.650Z,68.28
2023-04-28T03:24:22.036Z,68.27
2023-04-28T03:26:00.602Z,68.11
2023-04-28T03:27:22.501Z,68.06
2023-04-28T03:28:46.162Z,68.03
2023-04-28T03:30:16.218Z,68.03
2023-04-28T03:31:38.582Z,67.98
2023-04-28T03:33:03.092Z,67.64
2023-04-28T03:34:36.861Z,67.62
2023-04-28T03:36:02.615Z,67.47
2023-04-28T03:37:27.205Z,67.56
2023-04-28T03:39:00.511Z,67.56
2023-04-28T03:40:29.729Z,67.32
2023-04-28T03:42:06.253Z,67.43
2023-04-28T03:43:58.434Z,67.46
2023-04-28T03:45:30.724Z,67.59
2023-04-28T03:46:52.490Z,67.67
2023-04-28T03:48:26.305Z,67.69
2023-04-28T03:49:55.143Z,67.82
2023-04-28T03:51:36.793Z,67.70
2023-04-28T03:53:10.012Z,67.77
2023-04-28T03:54:41.593Z,67.38
2023-04-28T03:56:03.048Z,67.59
2023-04-28T03:57:25.100Z,67.79
2023-04-28T03:58:54.223Z,67.46
2023-04-28T04:00:19.893Z,67.52
2023-04-28T04:01:49.327Z,67.30
2023-04-28T04:03:13.337Z,67.19
2023-04-28T04:04:39.102Z,67.21
2023-04-28T04:06:04.019Z,67.26
2023-04-28T04:07:37.907Z,67.12
2023-04-28T04:09:02.266Z,67.00
2023-04-28T04:10:27.788Z,66.97
2023-04-28T04:11:57.186Z,66.78
2023-04-28T04:13:19.313Z,66.66
2023-04-28T04:14:43.519Z,66.70
2023-04-28T04:16:18.532Z,66.46
2023-04-28T04:17:40.922Z,67.07
2023-04-28T04:19:04.522Z,67.27
2023-04-28T04:20:55.913Z,67.33
2023-04-28T04:22:30.109Z,67.56
2023-04-28T04:23:51.488Z,67.28
2023-04-28T04:25:12.978Z,67.12
2023-04-28T04:26:35.259Z,67.27
2023-04-28T04:28:04.924Z,66.82
2023-04-28T04:29:35.250Z,66.53
2023-04-28T04:31:04.253Z,66.18
2023-04-28T04:32:45.101Z,66.17
2023-04-28T04:34:21.283Z,66.08
2023-04-28T04:35:55.453Z,66.06
2023-04-28T04:37:30.034Z,65.83
2023-04-28T04:39:05.973Z,65.75
2023-04-28T04:40:50.225Z,65.70
2023-04-28T04:42:24.159Z,65.59
2023-04-28T04:44:13.136Z,65.38
2023-04-28T04:45:49.907Z,65.27
2023-04-28T04:47:25.780Z,65.13
2023-04-28T04:48:52.117Z,65.19
2023-04-28T04:50:37.926Z,65.18
2023-04-28T04:52:19.028Z,64.84
2023-04-28T04:53:45.872Z,64.65
2023-04-28T04:55:19.163Z,64.35
2023-04-28T04:56:52.758Z,64.49
2023-04-28T04:58:36.196Z,64.49
2023-04-28T05:01:05.912Z,63.81
2023-04-28T05:02:36.983Z,63.08
2023-04-28T05:04:11.335Z,62.69
2023-04-28T05:05:54.547Z,61.69
2023-04-28T05:07:33.298Z,62.15
2023-04-28T05:09:08.386Z,61.78
2023-04-28T05:10:35.389Z,60.68
2023-04-28T05:11:57.929Z,60.34
2023-04-28T05:13:31.928Z,60.56
2023-04-28T05:15:09.967Z,60.46
2023-04-28T05:16:34.346Z,60.19
2023-04-28T05:18:16.788Z,60.31
2023-04-28T05:20:00.553Z,60.00
2023-04-28T05:21:26.899Z,59.95
2023-04-28T05:22:51.268Z,58.89
2023-04-28T05:24:22.249Z,58.88
2023-04-28T05:26:12.552Z,58.73
2023-04-28T05:27:41.772Z,57.87
2023-04-28T05:29:10.437Z,56.96
2023-04-28T05:30:45.177Z,57.34
2023-04-28T05:32:22.485Z,56.31
2023-04-28T05:34:07.752Z,56.53
2023-04-28T05:35:32.011Z,56.58
2023-04-28T05:36:53.779Z,56.37
2023-04-28T05:38:34.999Z,55.75
2023-04-28T05:40:08.087Z,56.21
2023-04-28T05:41:43.846Z,56.20
2023-04-28T05:43:19.171Z,55.96
2023-04-28T05:45:14.550Z,56.13
2023-04-28T05:46:56.630Z,56.00
2023-04-28T05:48:43.991Z,55.95
2023-04-28T05:50:20.115Z,54.93
2023-04-28T05:51:49.109Z,54.65
2023-04-28T05:53:20.829Z,54.30
2023-04-28T05:55:05.859Z,54.28
2023-04-28T05:56:37.742Z,54.42
2023-04-28T05:58:18.691Z,54.13
2023-04-28T05:59:52.165Z,54.14
2023-04-28T06:01:33.046Z,53.58
2023-04-28T06:03:18.657Z,53.43
2023-04-28T06:04:52.919Z,53.08
2023-04-28T06:06:14.981Z,53.13
2023-04-28T06:08:09.520Z,53.55
2023-04-28T06:09:45.707Z,53.55
2023-04-28T06:11:11.818Z,53.01
2023-04-28T06:12:39.351Z,52.63
2023-04-28T06:16:24.379Z,52.00
2023-04-28T06:20:14.562Z,52.97
2023-04-28T06:21:54.687Z,52.89
2023-04-28T06:23:18.510Z,51.08
2023-04-28T06:25:00.999Z,50.04
2023-04-28T06:26:41.826Z,49.78
2023-04-28T06:28:27.597Z,49.39
2023-04-28T06:29:56.841Z,49.49
2023-04-28T06:31:42.155Z,49.56
2023-04-28T06:33:06.654Z,49.66
2023-04-28T06:34:41.554Z,50.04
2023-04-28T06:36:26.219Z,50.69
2023-04-28T06:38:11.065Z,49.82
2023-04-28T06:39:43.141Z,48.85
2023-04-28T06:41:25.512Z,49.03
2023-04-28T06:42:57.542Z,47.26
2023-04-28T06:44:28.734Z,47.72
2023-04-28T06:45:51.180Z,47.12
2023-04-28T06:47:36.233Z,46.72
2023-04-28T06:49:11.725Z,46.19
2023-04-28T06:50:44.066Z,46.25
2023-04-28T06:52:07.772Z,46.22
2023-04-28T06:53:44.251Z,46.60
2023-04-28T06:55:17.731Z,46.96
2023-04-28T06:56:39.940Z,46.26
2023-04-28T06:58:13.107Z,46.83
2023-04-28T06:59:37.511Z,46.82
2023-04-28T07:01:06.857Z,45.86
2023-04-28T07:02:36.515Z,45.69
2023-04-28T07:04:06.444Z,45.58
2023-04-28T07:05:40.694Z,45.65
2023-04-28T07:07:09.754Z,45.44
2023-04-28T07:08:34.436Z,44.67
2023-04-28T07:09:56.232Z,44.66
2023-04-28T07:11:37.236Z,44.76
2023-04-28T07:13:22.149Z,45.37
2023-04-28T07:14:55.738Z,45.15
2023-04-28T07:16:29.535Z,44.68
2023-04-28T07:18:04.963Z,44.50
2023-04-28T07:19:31.525Z,44.70
2023-04-28T07:20:55.585Z,45.28
2023-04-28T07:22:28.749Z,45.40
2023-04-28T07:24:04.285Z,44.30
2023-04-28T07:25:39.693Z,43.64
2023-04-28T07:27:20.294Z,43.86
2023-04-28T07:28:44.911Z,44.47
2023-04-28T07:30:26.516Z,44.21
2023-04-28T07:32:01.204Z,43.27
2023-04-28T07:33:34.545Z,44.38
2023-04-28T07:35:07.754Z,44.96
2023-04-28T07:36:29.770Z,44.46
2023-04-28T07:37:55.710Z,44.64
2023-04-28T07:39:19.855Z,44.36
2023-04-28T07:40:56.171Z,44.21
2023-04-28T07:42:20.144Z,44.31
2023-04-28T07:43:53.423Z,44.62
2023-04-28T07:45:28.986Z,44.78
2023-04-28T07:47:14.082Z,44.92
2023-04-28T07:48:45.978Z,43.96
2023-04-28T07:50:09.902Z,44.14
2023-04-28T07:51:57.129Z,43.30
2023-04-28T07:53:21.081Z,41.91
2023-04-28T07:55:06.009Z,42.21
2023-04-28T07:56:42.999Z,41.58
2023-04-28T07:58:16.250Z,41.94
2023-04-28T07:59:41.015Z,41.82
2023-04-28T08:01:16.196Z,42.00
2023-04-28T08:02:38.022Z,41.16
2023-04-28T08:04:23.705Z,41.72
2023-04-28T08:06:09.618Z,42.60
2023-04-28T08:07:54.993Z,41.46
2023-04-28T08:09:41.700Z,41.32
2023-04-28T08:11:26.358Z,40.71
2023-04-28T08:13:00.118Z,40.53
2023-04-28T08:14:49.356Z,39.68
2023-04-28T08:18:23.184Z,41.02
2023-04-28T08:19:59.067Z,40.03
2023-04-28T08:21:46.800Z,41.14
2023-04-28T08:23:36.269Z,41.62
2023-04-28T08:25:21.522Z,41.47
2023-04-28T08:27:13.848Z,41.88
2023-04-28T08:28:51.028Z,42.14
2023-04-28T08:30:24.494Z,42.92
2023-04-28T08:32:10.600Z,41.47
2023-04-28T08:33:51.726Z,41.03
2023-04-28T08:35:32.400Z,40.58
2023-04-28T08:37:17.413Z,41.48
2023-04-28T08:39:13.045Z,40.54
2023-04-28T08:40:38.597Z,40.23
2023-04-28T08:42:14.703Z,41.30
2023-04-28T08:43:46.196Z,40.54
2023-04-28T08:45:22.039Z,40.70
2023-04-28T08:46:58.357Z,40.04
2023-04-28T08:48:34.300Z,40.14
2023-04-28T08:50:14.508Z,40.29
2023-04-28T08:51:56.818Z,40.25
2023-04-28T08:55:18.042Z,39.58
2023-04-28T08:56:51.398Z,40.38
2023-04-28T08:58:36.789Z,40.67
2023-04-28T09:00:10.289Z,41.11
2023-04-28T09:01:46.837Z,40.65
2023-04-28T09:03:35.165Z,39.37
2023-04-28T09:04:57.861Z,38.85
2023-04-28T09:06:24.329Z,38.52
2023-04-28T09:08:05.067Z,39.75
2023-04-28T09:09:36.988Z,40.19
2023-04-28T09:11:05.384Z,40.22
2023-04-28T09:12:39.356Z,40.31
2023-04-28T09:14:12.904Z,40.95
2023-04-28T09:15:46.334Z,40.96
2023-04-28T09:17:22.198Z,41.01
2023-04-28T09:19:05.496Z,41.14
2023-04-28T09:20:39.053Z,40.68
2023-04-28T09:22:26.060Z,40.97
2023-04-28T09:23:49.275Z,40.90
2023-04-28T09:25:33.172Z,40.10
2023-04-28T09:26:55.780Z,40.53
2023-04-28T09:28:37.157Z,41.59
2023-04-28T09:30:10.766Z,41.73
2023-04-28T09:31:44.898Z,40.51
2023-04-28T09:33:10.718Z,39.17
2023-04-28T09:34:53.655Z,39.11
2023-04-28T09:36:27.165Z,40.05
2023-04-28T09:38:00.498Z,40.50
2023-04-28T09:39:24.306Z,40.29
2023-04-28T09:40:57.592Z,40.17
2023-04-28T09:42:31.011Z,39.45
2023-04-28T09:44:12.301Z,39.90
2023-04-28T09:45:34.560Z,39.91
2023-04-28T09:47:10.202Z,39.36
2023-04-28T09:48:32.236Z,38.21
2023-04-28T09:50:07.620Z,38.78
2023-04-28T09:51:58.394Z,38.29
2023-04-28T09:53:30.380Z,38.78
2023-04-28T09:54:56.810Z,39.66
2023-04-28T09:56:20.643Z,39.62
2023-04-28T09:58:14.153Z,38.20
2023-04-28T09:59:43.664Z,36.84
2023-04-28T10:01:16.426Z,36.50
2023-04-28T10:02:46.171Z,36.31
2023-04-28T10:04:15.771Z,37.16
2023-04-28T10:05:48.364Z,37.98
2023-04-28T10:07:21.514Z,37.76
2023-04-28T10:08:50.908Z,40.14
2023-04-28T10:10:27.211Z,38.92
2023-04-28T10:11:49.301Z,37.92
2023-04-28T10:13:25.239Z,37.09
2023-04-28T10:15:03.337Z,37.00
2023-04-28T10:16:32.970Z,35.99
2023-04-28T10:18:02.177Z,36.71
2023-04-28T10:19:27.302Z,36.34
2023-04-28T10:20:48.853Z,36.73
2023-04-28T10:22:10.068Z,37.05
2023-04-28T10:23:45.454Z,36.75
2023-04-28T10:25:14.534Z,36.43
2023-04-28T10:26:39.147Z,36.42
2023-04-28T10:28:10.485Z,36.74
2023-04-28T10:29:33.928Z,39.32
2023-04-28T10:31:15.077Z,40.23
2023-04-28T10:32:37.368Z,39.29
2023-04-28T10:34:10.880Z,38.00
2023-04-28T10:35:59.429Z,38.65
2023-04-28T10:37:44.606Z,39.33
2023-04-28T10:39:17.738Z,37.82
2023-04-28T10:40:39.725Z,36.48
2023-04-28T10:42:01.877Z,36.14
2023-04-28T10:43:23.684Z,35.80
2023-04-28T10:44:45.745Z,36.02
2023-04-28T10:46:07.250Z,35.83
2023-04-28T10:47:52.434Z,36.53
2023-04-28T10:49:17.051Z,36.40
2023-04-28T10:50:53.307Z,37.21
2023-04-28T10:52:15.025Z,37.78
2023-04-28T10:53:37.028Z,37.48
2023-04-28T10:55:22.823Z,36.91
2023-04-28T10:56:56.878Z,36.74
2023-04-28T10:58:20.941Z,37.23
2023-04-28T10:59:52.492Z,36.71
2023-04-28T11:01:26.037Z,36.24
2023-04-28T11:02:49.582Z,35.47
2023-04-28T11:04:19.070Z,35.91
2023-04-28T11:05:41.608Z,36.26
2023-04-28T11:07:03.701Z,35.91
2023-04-28T11:08:28.273Z,36.42
2023-04-28T11:10:09.549Z,36.14
2023-04-28T11:11:34.916Z,37.00
2023-04-28T11:13:07.953Z,36.17
2023-04-28T11:14:45.187Z,36.43
2023-04-28T11:16:07.040Z,37.31
2023-04-28T11:17:29.254Z,36.69
2023-04-28T11:18:54.411Z,36.67
2023-04-28T11:20:29.910Z,35.48
2023-04-28T11:22:01.465Z,35.95
2023-04-28T11:23:23.785Z,35.07
2023-04-28T11:25:08.075Z,33.37
2023-04-28T11:26:37.433Z,33.26
2023-04-28T11:28:10.854Z,35.18
2023-04-28T11:29:47.112Z,35.38
2023-04-28T11:31:21.210Z,35.00
2023-04-28T11:33:07.046Z,34.24
2023-04-28T11:34:48.112Z,33.00
2023-04-28T11:36:10.002Z,33.15
2023-04-28T11:37:44.227Z,32.29
2023-04-28T11:39:05.316Z,33.47
2023-04-28T11:40:27.394Z,33.09
2023-04-28T11:41:49.107Z,33.47
2023-04-28T11:43:11.118Z,33.09
2023-04-28T11:44:37.697Z,34.23
2023-04-28T11:46:11.430Z,33.29
2023-04-28T11:47:37.959Z,33.34
2023-04-28T11:49:14.250Z,34.09
2023-04-28T11:50:45.680Z,33.28
2023-04-28T11:52:30.433Z,34.63
2023-04-28T11:54:09.750Z,34.35
2023-04-28T11:55:50.600Z,34.32
2023-04-28T11:57:19.858Z,32.96
2023-04-28T11:58:49.111Z,32.05
2023-04-28T12:00:11.636Z,32.71
2023-04-28T12:01:44.871Z,31.91
2023-04-28T12:03:09.143Z,31.07
2023-04-28T12:04:38.670Z,30.17
2023-04-28T12:06:12.052Z,30.22
2023-04-28T12:07:36.279Z,29.60
2023-04-28T12:09:16.761Z,29.72
2023-04-28T12:10:38.658Z,30.86
2023-04-28T12:12:11.939Z,30.69
2023-04-28T12:13:36.197Z,30.66
2023-04-28T12:15:22.181Z,31.03
2023-04-28T12:16:49.610Z,31.58
2023-04-28T12:18:20.568Z,31.58
2023-04-28T12:19:57.406Z,32.26
2023-04-28T12:21:22.077Z,31.02
2023-04-28T12:22:43.546Z,31.65
2023-04-28T12:24:07.706Z,31.05
2023-04-28T12:25:51.590Z,30.80
2023-04-28T12:27:15.512Z,29.17
2023-04-28T12:28:40.258Z,28.19
2023-04-28T12:30:11.635Z,28.86
2023-04-28T12:31:48.821Z,28.90
2023-04-28T12:33:20.006Z,28.90
2023-04-28T12:34:41.919Z,29.05
2023-04-28T12:36:13.475Z,29.04
2023-04-28T12:37:43.017Z,30.10
2023-04-28T12:39:18.952Z,30.63
2023-04-28T12:40:52.906Z,30.52
2023-04-28T12:42:26.248Z,29.26
2023-04-28T12:43:48.294Z,28.82
2023-04-28T12:45:10.286Z,28.52
2023-04-28T12:46:33.497Z,28.84
2023-04-28T12:48:04.591Z,28.89
2023-04-28T12:49:28.854Z,29.40
2023-04-28T12:51:05.386Z,29.92
2023-04-28T12:52:29.506Z,29.65
2023-04-28T12:54:13.136Z,29.73
2023-04-28T12:55:54.320Z,29.58
2023-04-28T12:57:23.331Z,29.90
2023-04-28T12:58:45.190Z,31.35
2023-04-28T13:00:21.062Z,32.65
2023-04-28T13:01:56.768Z,29.95
2023-04-28T13:03:30.754Z,31.17
2023-04-28T13:05:11.921Z,31.30
2023-04-28T13:06:56.314Z,30.99
2023-04-28T13:08:34.008Z,29.74
2023-04-28T13:09:58.376Z,29.47
2023-04-28T13:11:41.469Z,28.55
2023-04-28T13:13:03.314Z,28.57
2023-04-28T13:14:25.255Z,28.72
2023-04-28T13:15:58.822Z,29.72
2023-04-28T13:17:34.959Z,29.77
2023-04-28T13:19:15.596Z,28.49
2023-04-28T13:20:49.447Z,27.35
2023-04-28T13:22:23.209Z,26.38
2023-04-28T13:24:04.224Z,26.56
2023-04-28T13:25:58.477Z,26.31
2023-04-28T13:27:41.910Z,25.83
2023-04-28T13:29:05.252Z,26.99
2023-04-28T13:30:26.770Z,25.92
2023-04-28T13:32:11.804Z,25.99
2023-04-28T13:33:47.696Z,25.39
2023-04-28T13:35:21.191Z,25.97
2023-04-28T13:36:55.389Z,26.42
2023-04-28T13:38:17.258Z,26.27
2023-04-28T13:39:53.509Z,27.17
2023-04-28T13:41:15.347Z,27.24
2023-04-28T13:42:51.303Z,27.15
2023-04-28T13:44:24.820Z,27.49
2023-04-28T13:45:51.103Z,26.40
2023-04-28T13:47:12.511Z,26.41
2023-04-28T13:48:35.128Z,26.15
2023-04-28T13:50:08.687Z,26.41
2023-04-28T13:51:58.464Z,26.77
2023-04-28T13:53:43.806Z,28.18
2023-04-28T13:55:28.725Z,28.96
2023-04-28T13:57:02.824Z,29.00
2023-04-28T13:58:45.043Z,28.57
2023-04-28T14:00:06.977Z,30.01
2023-04-28T14:01:41.083Z,28.64
2023-04-28T14:03:25.564Z,27.73
2023-04-28T14:05:00.681Z,26.89
2023-04-28T14:06:30.286Z,26.53
2023-04-28T14:08:16.860Z,26.60
2023-04-28T14:09:49.319Z,26.13
2023-04-28T14:11:13.411Z,26.15
2023-04-28T14:12:47.088Z,26.25
2023-04-28T14:14:20.485Z,26.58
2023-04-28T14:15:59.972Z,26.13
2023-04-28T14:17:46.335Z,26.74
2023-04-28T14:19:38.548Z,26.98
2023-04-28T14:21:00.208Z,26.70
2023-04-28T14:22:36.214Z,26.53
2023-04-28T14:24:22.118Z,27.46
2023-04-28T14:25:56.141Z,27.29
2023-04-28T14:27:29.697Z,27.67
2023-04-28T14:29:09.960Z,29.32
2023-04-28T14:31:03.432Z,28.53
2023-04-28T14:32:43.087Z,28.45
2023-04-28T14:34:05.175Z,28.55
2023-04-28T14:35:31.597Z,28.05
2023-04-28T14:37:02.866Z,27.84
2023-04-28T14:38:46.809Z,28.95
2023-04-28T14:40:22.833Z,29.31
2023-04-28T14:42:04.380Z,29.47
2023-04-28T14:43:38.710Z,30.10
2023-04-28T14:45:12.345Z,29.89
2023-04-28T14:46:34.548Z,29.82
2023-04-28T14:48:10.240Z,30.21
2023-04-28T14:49:55.326Z,30.42
2023-04-28T14:51:16.849Z,29.97
2023-04-28T14:52:53.060Z,31.06
2023-04-28T14:54:33.736Z,30.88
2023-04-28T14:56:17.952Z,30.94
2023-04-28T14:57:52.751Z,30.18
2023-04-28T14:59:14.290Z,30.01
2023-04-28T15:00:50.453Z,29.23
2023-04-28T15:02:38.109Z,29.11
2023-04-28T15:03:59.823Z,27.73
2023-04-28T15:05:33.207Z,28.49
2023-04-28T15:07:08.868Z,28.00
2023-04-28T15:08:50.668Z,28.12
2023-04-28T15:10:24.336Z,28.48
2023-04-28T15:11:46.313Z,28.24
2023-04-28T15:13:08.340Z,28.06
2023-04-28T15:14:44.460Z,28.01
2023-04-28T15:16:29.240Z,28.22
2023-04-28T15:18:01.243Z,26.97
2023-04-28T15:19:47.478Z,26.59
2023-04-28T15:21:20.864Z,26.09
2023-04-28T15:22:53.270Z,26.17
2023-04-28T15:24:26.895Z,26.18
2023-04-28T15:26:01.588Z,26.57
2023-04-28T15:27:30.704Z,25.89
2023-04-28T15:29:04.792Z,25.94
2023-04-28T15:30:34.354Z,26.01
2023-04-28T15:32:03.608Z,25.75
2023-04-28T15:33:25.698Z,26.42
2023-04-28T15:34:57.295Z,26.61
2023-04-28T15:36:21.484Z,26.07
2023-04-28T15:38:05.127Z,26.10
2023-04-28T15:39:28.560Z,26.37
2023-04-28T15:40:50.359Z,26.02
2023-04-28T15:42:31.467Z,26.10
2023-04-28T15:44:04.974Z,26.64
2023-04-28T15:45:37.196Z,27.54
2023-04-28T15:47:10.677Z,28.20
2023-04-28T15:48:32.774Z,28.30
2023-04-28T15:50:16.987Z,28.31
2023-04-28T15:51:59.812Z,29.30
2023-04-28T15:53:53.424Z,29.52
2023-04-28T15:55:34.461Z,30.59
2023-04-28T15:57:01.457Z,30.21
2023-04-28T15:58:48.006Z,30.30
2023-04-28T16:00:17.015Z,30.81
2023-04-28T16:01:53.217Z,30.83
2023-04-28T16:03:26.865Z,31.07
2023-04-28T16:05:10.655Z,30.35
2023-04-28T16:06:35.121Z,30.26
2023-04-28T16:08:19.947Z,30.13
2023-04-28T16:09:56.403Z,30.33
2023-04-28T16:11:25.764Z,30.32
2023-04-28T16:13:10.745Z,30.12
2023-04-28T16:14:36.988Z,30.12
2023-04-28T16:16:11.973Z,29.98
2023-04-28T16:17:53.205Z,29.33
2023-04-28T16:19:29.407Z,30.62
2023-04-28T16:20:51.811Z,29.72
2023-04-28T16:22:25.292Z,29.96
2023-04-28T16:23:46.916Z,30.09
2023-04-28T16:25:10.706Z,30.32
2023-04-28T16:26:32.871Z,30.92
2023-04-28T16:27:57.280Z,30.50
2023-04-28T16:29:45.001Z,30.13
2023-04-28T16:31:20.340Z,30.20
2023-04-28T16:32:42.731Z,30.72
2023-04-28T16:34:18.718Z,31.60
2023-04-28T16:35:59.745Z,31.21
2023-04-28T16:37:33.351Z,30.97
2023-04-28T16:38:57.932Z,31.50
2023-04-28T16:40:22.010Z,31.56
2023-04-28T16:42:07.192Z,31.46
2023-04-28T16:43:31.849Z,32.10
2023-04-28T16:44:53.817Z,32.50
2023-04-28T16:46:15.120Z,33.21
2023-04-28T16:47:38.045Z,33.70
2023-04-28T16:49:23.300Z,33.57
2023-04-28T16:50:56.396Z,34.11
2023-04-28T16:52:50.031Z,34.46
2023-04-28T16:54:44.499Z,34.65
2023-04-28T16:56:20.308Z,35.11
2023-04-28T16:58:05.534Z,35.51
2023-04-28T16:59:51.165Z,35.66
2023-04-28T17:01:15.383Z,35.85
2023-04-28T17:02:42.146Z,36.24
2023-04-28T17:04:27.372Z,36.47
2023-04-28T17:05:52.175Z,37.02
2023-04-28T17:07:25.762Z,37.58
2023-04-28T17:08:54.798Z,37.98
2023-04-28T17:10:25.973Z,38.40
2023-04-28T17:11:52.824Z,38.71
2023-04-28T17:13:28.940Z,38.39
2023-04-28T17:15:02.092Z,38.79
2023-04-28T17:16:55.699Z,38.96
2023-04-28T17:18:36.747Z,38.86
2023-04-28T17:20:10.410Z,39.41
2023-04-28T17:22:05.520Z,39.76
2023-04-28T17:23:34.774Z,39.70
2023-04-28T17:25:19.533Z,39.49
2023-04-28T17:27:04.556Z,39.79
2023-04-28T17:28:58.524Z,39.82
2023-04-28T17:30:38.369Z,39.75
2023-04-28T17:32:11.834Z,39.89
2023-04-28T17:33:57.172Z,40.40
2023-04-28T17:35:33.196Z,40.46
2023-04-28T17:37:18.464Z,40.69
2023-04-28T17:39:13.185Z,40.84
2023-04-28T17:40:48.703Z,41.35
2023-04-28T17:42:19.819Z,41.45
2023-04-28T17:44:02.527Z,41.46
2023-04-28T17:45:48.651Z,41.91
2023-04-28T17:47:43.536Z,42.10
2023-04-28T17:49:16.709Z,42.23
2023-04-28T17:50:50.127Z,42.34
2023-04-28T17:52:23.905Z,42.46
2023-04-28T17:54:09.317Z,42.80
2023-04-28T17:55:59.535Z,42.77
2023-04-28T17:57:44.916Z,43.20
2023-04-28T17:59:18.447Z,43.00
2023-04-28T18:00:51.779Z,43.31
2023-04-28T18:02:27.214Z,43.15
2023-04-28T18:03:58.911Z,43.28
2023-04-28T18:05:23.079Z,43.46
2023-04-28T18:06:54.666Z,43.88
2023-04-28T18:08:23.731Z,44.24
2023-04-28T18:09:57.270Z,44.18
2023-04-28T18:11:21.800Z,44.49
2023-04-28T18:13:02.291Z,44.39
2023-04-28T18:14:28.469Z,44.56
2023-04-28T18:16:13.604Z,44.79
2023-04-28T18:17:49.296Z,44.63
2023-04-28T18:19:10.856Z,44.74
2023-04-28T18:20:47.253Z,45.12
2023-04-28T18:22:15.932Z,45.32
2023-04-28T18:23:37.875Z,45.40
2023-04-28T18:25:18.585Z,45.67
2023-04-28T18:27:00.501Z,45.48
2023-04-28T18:28:35.264Z,45.86
2023-04-28T18:29:59.084Z,46.44
2023-04-28T18:31:44.219Z,46.26
2023-04-28T18:33:29.940Z,46.52
2023-04-28T18:35:15.267Z,46.41
2023-04-28T18:36:51.373Z,47.03
2023-04-28T18:38:36.818Z,46.61
2023-04-28T18:40:22.276Z,47.15
2023-04-28T18:41:46.972Z,47.10
2023-04-28T18:43:11.235Z,47.29
2023-04-28T18:44:47.676Z,47.11
2023-04-28T18:46:21.219Z,47.39
2023-04-28T18:47:45.110Z,47.54
2023-04-28T18:49:25.680Z,47.46
2023-04-28T18:50:49.770Z,47.64
2023-04-28T18:52:30.445Z,47.83
2023-04-28T18:54:16.255Z,48.09
2023-04-28T18:55:56.907Z,47.95
2023-04-28T18:57:21.118Z,47.59
2023-04-28T18:58:57.499Z,48.22
2023-04-28T19:00:43.139Z,47.59
2023-04-28T19:02:16.467Z,48.04
2023-04-28T19:03:38.481Z,48.16
2023-04-28T19:05:03.160Z,48.40
2023-04-28T19:06:32.295Z,48.28
2023-04-28T19:08:13.076Z,48.43
2023-04-28T19:09:37.803Z,48.72
2023-04-28T19:11:13.368Z,48.92
2023-04-28T19:12:35.185Z,48.85
2023-04-28T19:13:57.247Z,48.98
2023-04-28T19:15:33.543Z,49.41
2023-04-28T19:16:55.755Z,49.45
2023-04-28T19:18:19.708Z,49.28
2023-04-28T19:19:43.872Z,49.39
2023-04-28T19:21:17.149Z,49.96
2023-04-28T19:22:40.393Z,50.09
2023-04-28T19:24:09.486Z,50.14
2023-04-28T19:25:33.683Z,50.08
2023-04-28T19:27:05.564Z,50.18
2023-04-28T19:28:46.322Z,50.42
2023-04-28T19:30:15.792Z,50.20
2023-04-28T19:31:49.230Z,50.36
2023-04-28T19:33:18.267Z,50.85
2023-04-28T19:34:42.472Z,50.67
2023-04-28T19:36:12.180Z,50.88
2023-04-28T19:37:34.914Z,50.65
2023-04-28T19:39:01.251Z,50.80
2023-04-28T19:40:23.070Z,50.26
2023-04-28T19:41:52.407Z,50.46
2023-04-28T19:43:16.227Z,50.41
2023-04-28T19:44:57.755Z,50.83
2023-04-28T19:46:26.711Z,50.82
2023-04-28T19:47:51.184Z,51.17
2023-04-28T19:49:17.661Z,50.98
2023-04-28T19:50:51.271Z,51.02
2023-04-28T19:52:25.074Z,51.20
2023-04-28T19:53:48.655Z,51.27
2023-04-28T19:55:20.098Z,51.05
2023-04-28T19:56:41.779Z,51.05
2023-04-28T19:58:05.870Z,51.23
2023-04-28T19:59:29.799Z,51.76
2023-04-28T20:00:59.159Z,51.54